createdAt,value
2023-03-05T00:00:28.376Z,59.14
2023-03-05T00:04:15.866Z,59.48
2023-03-05T00:07:39.768Z,59.80
2023-03-05T00:11:08.163Z,60.05
2023-03-05T00:14:32.044Z,60.42
2023-03-05T00:17:56.026Z,60.77
2023-03-05T00:21:26.009Z,60.96
2023-03-05T00:24:52.498Z,61.06
2023-03-05T00:28:18.645Z,61.02
2023-03-05T00:31:44.657Z,61.42
2023-03-05T00:35:10.381Z,61.57
2023-03-05T00:38:35.793Z,61.63
2023-03-05T00:42:00.253Z,61.56
2023-03-05T00:45:25.393Z,61.57
2023-03-05T00:48:52.492Z,61.59
2023-03-05T00:52:17.474Z,61.55
2023-03-05T00:55:41.440Z,61.58
2023-03-05T00:59:11.460Z,61.48
2023-03-05T01:03:12.546Z,61.23
2023-03-05T01:07:10.343Z,61.14
2023-03-05T01:11:08.391Z,61.04
2023-03-05T01:15:06.779Z,60.90
2023-03-05T01:19:04.347Z,60.74
2023-03-05T01:23:02.377Z,60.59
2023-03-05T01:27:00.454Z,60.50
2023-03-05T01:30:58.359Z,60.39
2023-03-05T01:34:56.337Z,60.44
2023-03-05T01:38:54.273Z,60.51
2023-03-05T01:42:52.370Z,60.64
2023-03-05T01:46:53.276Z,60.86
2023-03-05T01:50:51.404Z,60.94
2023-03-05T01:55:06.280Z,60.87
2023-03-05T01:59:10.280Z,60.82
2023-03-05T02:03:08.280Z,60.80
2023-03-05T02:07:06.460Z,60.85
2023-03-05T02:11:08.251Z,60.86
2023-03-05T02:15:08.265Z,61.22
2023-03-05T02:19:06.344Z,61.36
2023-03-05T02:23:04.290Z,61.96
2023-03-05T02:27:02.200Z,63.20
2023-03-05T02:31:00.267Z,66.55
2023-03-05T02:34:58.352Z,66.04
2023-03-05T02:38:57.247Z,59.95
2023-03-05T02:42:56.261Z,51.75
2023-03-05T02:46:54.261Z,52.57
2023-03-05T02:50:52.183Z,53.58
2023-03-05T02:54:50.299Z,55.20
2023-03-05T02:58:48.184Z,57.00
2023-03-05T03:02:46.203Z,58.30
2023-03-05T03:06:44.240Z,58.72
2023-03-05T03:10:42.416Z,60.09
2023-03-05T03:14:40.145Z,60.55
2023-03-05T03:18:38.169Z,61.40
2023-03-05T03:22:36.255Z,61.26
2023-03-05T03:26:34.242Z,63.19
2023-03-05T03:30:32.304Z,63.35
2023-03-05T03:34:31.181Z,63.16
2023-03-05T03:38:29.189Z,62.79
2023-03-05T03:42:27.176Z,62.79
2023-03-05T03:46:25.161Z,62.67
2023-03-05T03:50:23.129Z,62.29
2023-03-05T03:54:21.088Z,62.12
2023-03-05T03:58:19.189Z,62.15
2023-03-05T04:02:17.160Z,62.71
2023-03-05T04:06:15.156Z,62.82
2023-03-05T04:10:13.036Z,63.03
2023-03-05T04:14:11.429Z,63.29
2023-03-05T04:18:10.098Z,63.24
2023-03-05T04:22:08.188Z,63.97
2023-03-05T04:26:06.183Z,64.28
2023-03-05T04:30:04.144Z,64.09
2023-03-05T04:34:02.137Z,64.10
2023-03-05T04:38:01.124Z,64.31
2023-03-05T04:41:59.107Z,64.15
2023-03-05T04:45:58.028Z,64.43
2023-03-05T04:49:55.990Z,64.36
2023-03-05T04:53:56.040Z,64.13
2023-03-05T04:57:54.093Z,64.09
2023-03-05T05:01:52.147Z,64.14
2023-03-05T05:05:50.046Z,64.36
2023-03-05T05:09:48.983Z,64.67
2023-03-05T05:13:48.013Z,64.35
2023-03-05T05:17:46.078Z,64.55
2023-03-05T05:21:43.939Z,64.47
2023-03-05T05:25:41.957Z,64.03
2023-03-05T05:29:39.917Z,63.31
2023-03-05T05:33:37.952Z,62.95
2023-03-05T05:37:35.942Z,62.88
2023-03-05T05:41:33.967Z,62.86
2023-03-05T05:45:32.087Z,62.92
2023-03-05T05:49:29.975Z,63.11
2023-03-05T05:53:27.946Z,63.21
2023-03-05T05:57:25.949Z,63.32
2023-03-05T06:01:34.967Z,63.49
2023-03-05T06:05:32.933Z,63.45
2023-03-05T06:09:30.928Z,63.46
2023-03-05T06:13:28.899Z,63.44
2023-03-05T06:17:30.743Z,63.37
2023-03-05T06:21:32.037Z,63.25
2023-03-05T06:25:29.961Z,63.00
2023-03-05T06:29:27.991Z,62.86
2023-03-05T06:33:26.879Z,67.07
2023-03-05T06:37:24.960Z,58.82
2023-03-05T06:41:26.937Z,52.30
2023-03-05T06:45:24.850Z,53.41
2023-03-05T06:49:24.971Z,54.07
2023-03-05T06:53:22.827Z,55.26
2023-03-05T06:57:20.838Z,56.09
2023-03-05T07:01:21.018Z,56.80
2023-03-05T07:05:19.789Z,56.89
2023-03-05T07:09:20.806Z,56.92
2023-03-05T07:13:18.788Z,56.58
2023-03-05T07:17:16.810Z,56.75
2023-03-05T07:21:22.795Z,56.47
2023-03-05T07:25:20.830Z,56.75
2023-03-05T07:29:18.796Z,55.72
2023-03-05T07:33:16.809Z,55.50
2023-03-05T07:37:14.759Z,55.73
2023-03-05T07:41:17.913Z,55.09
2023-03-05T07:45:15.813Z,54.73
2023-03-05T07:49:13.806Z,54.02
2023-03-05T07:53:11.763Z,54.21
2023-03-05T07:57:09.834Z,54.27
2023-03-05T08:01:07.737Z,54.58
2023-03-05T08:05:05.892Z,54.77
2023-03-05T08:09:03.721Z,53.96
2023-03-05T08:13:01.748Z,53.50
2023-03-05T08:16:59.717Z,52.65
2023-03-05T08:20:57.763Z,52.77
2023-03-05T08:24:55.683Z,52.31
2023-03-05T08:28:53.763Z,51.13
2023-03-05T08:32:51.751Z,50.54
2023-03-05T08:36:49.663Z,49.22
2023-03-05T08:40:47.745Z,49.52
2023-03-05T08:44:45.753Z,49.17
2023-03-05T08:48:44.663Z,49.43
2023-03-05T08:52:42.758Z,48.67
2023-03-05T08:56:40.669Z,48.78
2023-03-05T09:00:38.825Z,49.02
2023-03-05T09:04:36.654Z,48.19
2023-03-05T09:08:34.852Z,48.11
2023-03-05T09:12:34.704Z,47.70
2023-03-05T09:16:33.691Z,46.64
2023-03-05T09:20:31.697Z,47.08
2023-03-05T09:24:29.789Z,46.78
2023-03-05T09:28:27.644Z,46.90
2023-03-05T09:32:25.755Z,47.42
2023-03-05T09:36:33.563Z,46.50
2023-03-05T09:40:32.622Z,46.70
2023-03-05T09:45:15.620Z,47.18
2023-03-05T09:49:31.613Z,46.57
2023-03-05T09:53:32.572Z,46.35
2023-03-05T09:57:35.744Z,45.86
2023-03-05T10:01:41.535Z,45.54
2023-03-05T10:06:24.623Z,44.23
2023-03-05T10:10:31.616Z,43.35
2023-03-05T10:14:44.649Z,42.68
2023-03-05T10:19:04.535Z,42.81
2023-03-05T10:23:32.623Z,42.70
2023-03-05T10:27:54.659Z,43.95
2023-03-05T10:32:30.623Z,43.82
2023-03-05T10:36:53.508Z,43.51
2023-03-05T10:40:58.628Z,43.06
2023-03-05T10:45:03.494Z,42.75
2023-03-05T10:49:05.662Z,43.51
2023-03-05T10:53:15.524Z,43.47
2023-03-05T10:57:36.512Z,43.86
2023-03-05T11:01:37.588Z,45.16
2023-03-05T11:06:01.606Z,45.17
2023-03-05T11:10:29.449Z,45.76
2023-03-05T11:14:41.534Z,46.28
2023-03-05T11:18:41.473Z,46.82
2023-03-05T11:22:42.494Z,47.52
2023-03-05T11:26:40.436Z,48.47
2023-03-05T11:30:50.445Z,49.44
2023-03-05T11:34:48.449Z,50.07
2023-03-05T11:38:46.514Z,50.56
2023-03-05T11:42:44.419Z,50.85
2023-03-05T11:46:42.429Z,51.02
2023-03-05T11:50:44.460Z,51.25
2023-03-05T11:54:54.527Z,51.47
2023-03-05T11:59:04.370Z,51.35
2023-03-05T12:03:06.693Z,51.56
2023-03-05T12:07:16.439Z,51.75
2023-03-05T12:11:20.483Z,51.81
2023-03-05T12:15:27.429Z,52.30
2023-03-05T12:19:47.570Z,52.64
2023-03-05T12:23:59.364Z,52.26
2023-03-05T12:27:58.382Z,52.39
2023-03-05T12:31:56.317Z,52.07
2023-03-05T12:35:55.426Z,51.57
2023-03-05T12:39:59.354Z,51.50
2023-03-05T12:43:57.415Z,51.98
2023-03-05T12:47:56.430Z,52.51
2023-03-05T12:51:56.457Z,52.91
2023-03-05T12:56:27.416Z,53.21
2023-03-05T13:00:31.405Z,54.22
2023-03-05T13:04:34.159Z,54.68
2023-03-05T13:08:21.749Z,55.56
2023-03-05T13:11:51.970Z,57.72
2023-03-05T13:15:16.874Z,59.41
2023-03-05T13:18:41.998Z,60.97
2023-03-05T13:22:13.259Z,61.85
2023-03-05T13:25:37.101Z,65.47
2023-03-05T13:29:07.193Z,69.01
2023-03-05T13:32:33.931Z,64.85
2023-03-05T13:35:57.926Z,57.97
2023-03-05T13:39:26.124Z,56.88
2023-03-05T13:42:51.045Z,58.49
2023-03-05T13:46:15.130Z,60.58
2023-03-05T13:49:39.232Z,65.83
2023-03-05T13:53:21.708Z,67.09
2023-03-05T13:57:02.412Z,63.07
2023-03-05T14:00:39.997Z,61.55
2023-03-05T14:04:16.620Z,62.10
2023-03-05T14:07:42.666Z,64.28
2023-03-05T14:11:18.784Z,62.31
2023-03-05T14:14:45.636Z,60.98
2023-03-05T14:18:21.287Z,60.52
2023-03-05T14:21:50.604Z,60.68
2023-03-05T14:25:38.497Z,61.32
2023-03-05T14:29:25.255Z,61.95
2023-03-05T14:32:50.805Z,61.77
2023-03-05T14:36:15.034Z,61.85
2023-03-05T14:39:46.530Z,63.90
2023-03-05T14:43:12.132Z,61.63
2023-03-05T14:46:36.072Z,55.64
2023-03-05T14:49:59.952Z,53.44
2023-03-05T14:53:27.864Z,55.04
2023-03-05T14:56:51.899Z,56.88
2023-03-05T15:00:21.544Z,58.42
2023-03-05T15:03:45.694Z,60.56
2023-03-05T15:07:17.937Z,67.80
2023-03-05T15:10:41.915Z,70.43
2023-03-05T15:14:06.208Z,66.43
2023-03-05T15:17:43.290Z,61.98
2023-03-05T15:21:07.259Z,60.65
2023-03-05T15:24:31.177Z,59.89
2023-03-05T15:27:55.161Z,56.80
2023-03-05T15:31:19.060Z,55.49
2023-03-05T15:34:43.295Z,57.21
2023-03-05T15:38:07.488Z,58.60
2023-03-05T15:41:51.226Z,61.62
2023-03-05T15:45:49.125Z,71.31
2023-03-05T15:49:48.212Z,66.29
2023-03-05T15:53:46.087Z,61.36
2023-03-05T15:57:44.174Z,61.26
2023-03-05T16:01:43.190Z,60.35
2023-03-05T16:05:41.074Z,56.72
2023-03-05T16:09:42.107Z,57.01
2023-03-05T16:13:42.060Z,59.09
2023-03-05T16:17:40.119Z,60.77
2023-03-05T16:21:38.117Z,69.73
2023-03-05T16:25:36.001Z,67.82
2023-03-05T16:29:34.052Z,62.87
2023-03-05T16:33:31.988Z,60.97
2023-03-05T16:37:35.029Z,56.42
2023-03-05T16:41:34.009Z,59.49
2023-03-05T16:45:32.090Z,66.49
2023-03-05T16:49:29.983Z,64.54
2023-03-05T16:53:28.091Z,61.83
2023-03-05T16:57:26.133Z,57.64
2023-03-05T17:01:29.150Z,60.20
2023-03-05T17:05:26.978Z,66.92
2023-03-05T17:09:25.960Z,63.91
2023-03-05T17:13:23.996Z,57.15
2023-03-05T17:17:22.178Z,62.15
2023-03-05T17:21:20.056Z,68.21
2023-03-05T17:25:18.930Z,67.97
2023-03-05T17:29:19.027Z,69.44
2023-03-05T17:33:17.099Z,69.14
2023-03-05T17:37:14.963Z,68.61
2023-03-05T17:41:12.988Z,65.57
2023-03-05T17:45:12.081Z,61.62
2023-03-05T17:49:10.026Z,55.88
2023-03-05T17:53:09.017Z,58.31
2023-03-05T17:57:10.978Z,67.97
2023-03-05T18:01:10.918Z,67.31
2023-03-05T18:05:10.143Z,63.51
2023-03-05T18:09:07.886Z,62.02
2023-03-05T18:13:06.953Z,61.36
2023-03-05T18:17:05.994Z,60.11
2023-03-05T18:21:03.893Z,61.55
2023-03-05T18:25:01.957Z,60.60
2023-03-05T18:29:00.033Z,56.48
2023-03-05T18:32:57.915Z,57.04
2023-03-05T18:36:55.990Z,60.32
2023-03-05T18:40:54.837Z,66.62
2023-03-05T18:44:53.915Z,70.52
2023-03-05T18:48:51.869Z,65.92
2023-03-05T18:52:50.018Z,62.38
2023-03-05T18:56:48.846Z,61.71
2023-03-05T19:00:48.879Z,60.71
2023-03-05T19:04:46.956Z,55.83
2023-03-05T19:08:44.855Z,55.92
2023-03-05T19:13:29.830Z,58.31
2023-03-05T19:17:27.906Z,64.59
2023-03-05T19:21:25.791Z,69.84
2023-03-05T19:25:24.821Z,66.11
2023-03-05T19:29:23.878Z,62.69
2023-03-05T19:33:24.077Z,60.88
2023-03-05T19:37:22.814Z,55.63
2023-03-05T19:41:24.787Z,57.04
2023-03-05T19:45:23.912Z,63.03
2023-03-05T19:49:21.773Z,68.01
2023-03-05T19:53:19.741Z,67.07
2023-03-05T19:57:17.823Z,67.76
2023-03-05T20:01:26.869Z,70.78
2023-03-05T20:05:24.843Z,63.25
2023-03-05T20:09:22.814Z,62.75
2023-03-05T20:13:20.715Z,57.54
2023-03-05T20:17:19.706Z,54.47
2023-03-05T20:21:17.744Z,57.71
2023-03-05T20:25:15.683Z,62.64
2023-03-05T20:29:16.878Z,69.43
2023-03-05T20:33:15.662Z,63.70
2023-03-05T20:37:14.757Z,60.58
2023-03-05T20:41:43.946Z,54.76
2023-03-05T20:45:41.700Z,56.11
2023-03-05T20:49:39.663Z,59.05
2023-03-05T20:53:38.650Z,60.58
2023-03-05T20:57:36.764Z,61.40
2023-03-05T21:01:34.710Z,70.43
2023-03-05T21:05:33.698Z,72.54
2023-03-05T21:09:34.652Z,66.46
2023-03-05T21:13:34.625Z,59.33
2023-03-05T21:17:32.698Z,56.14
2023-03-05T21:21:31.730Z,57.31
2023-03-05T21:25:32.677Z,57.66
2023-03-05T21:29:31.652Z,60.06
2023-03-05T21:33:34.603Z,61.26
2023-03-05T21:37:32.633Z,69.45
2023-03-05T21:41:30.735Z,74.15
2023-03-05T21:45:34.571Z,68.60
2023-03-05T21:49:32.596Z,64.15
2023-03-05T21:53:32.556Z,59.90
2023-03-05T21:57:30.567Z,52.46
2023-03-05T22:01:32.583Z,53.97
2023-03-05T22:05:30.557Z,57.21
2023-03-05T22:09:28.515Z,59.20
2023-03-05T22:13:27.546Z,61.17
2023-03-05T22:17:25.516Z,71.95
2023-03-05T22:21:32.515Z,71.63
2023-03-05T22:25:30.512Z,63.32
2023-03-05T22:29:28.562Z,59.62
2023-03-05T22:33:26.489Z,58.01
2023-03-05T22:37:24.484Z,58.13
2023-03-05T22:41:26.463Z,59.30
2023-03-05T22:45:25.481Z,69.06
2023-03-05T22:49:25.504Z,69.80
2023-03-05T22:53:23.478Z,64.91
2023-03-05T22:57:21.492Z,60.67
2023-03-05T23:01:27.438Z,52.93
2023-03-05T23:05:26.453Z,52.62
2023-03-05T23:09:24.467Z,54.68
2023-03-05T23:13:22.432Z,56.49
2023-03-05T23:17:20.451Z,57.76
2023-03-05T23:21:18.452Z,58.65
2023-03-05T23:25:16.451Z,60.68
2023-03-05T23:29:14.424Z,61.62
2023-03-05T23:33:27.533Z,73.74
2023-03-05T23:37:25.415Z,75.12
2023-03-05T23:41:24.442Z,67.86
2023-03-05T23:45:24.376Z,61.75
2023-03-05T23:49:22.472Z,53.77
2023-03-05T23:53:21.349Z,53.31
2023-03-05T23:57:19.405Z,55.93
